Time;durP1;ratioP1;P1;durP2;ratioP2;P2;SDS_P1;SDS_P2;PMS_P1;PMS_P2;Temp;Humidity;BMP_temperature;BMP_pressure;BME280_temperature;BME280_humidity;BME280_pressure;Samples;Min_cycle;Max_cycle;Signal;HPM_P1;HPM_P2
2022/09/20 00:01:45;;;;;;;7.80;1.67;;;;;;;10.28;50.67;98623.81;5041956;28;20099;-62
2022/09/20 00:04:41;;;;;;;4.07;1.13;;;;;;;9.90;48.33;98587.91;5079917;28;20045;-60
2022/09/20 00:07:27;;;;;;;7.00;1.27;;;;;;;10.03;50.94;98640.44;5082015;28;20052;-61
2022/09/20 00:10:08;;;;;;;4.40;1.42;;;;;;;10.17;51.87;98626.84;5041388;28;20116;-61
2022/09/20 00:13:03;;;;;;;5.13;1.42;;;;;;;10.40;49.20;98623.31;5081758;28;20111;-64
2022/09/20 00:15:54;;;;;;;5.32;1.35;;;;;;;10.26;46.84;98626.47;5057387;28;20109;-64
2022/09/20 00:18:48;;;;;;;3.25;1.20;;;;;;;10.44;46.88;98640.56;5081829;28;20256;-64
2022/09/20 00:21:38;;;;;;;3.85;1.17;;;;;;;10.59;48.90;98633.84;5080701;28;20063;-65
2022/09/20 00:24:23;;;;;;;7.90;1.67;;;;;;;10.67;47.44;98652.66;5080193;28;20072;-64
2022/09/20 00:27:44;;;;;;;7.03;1.75;;;;;;;10.42;47.15;98636.31;5080781;28;20312;-65
2022/09/20 00:30:20;;;;;;;5.43;1.08;;;;;;;10.69;49.06;98649.97;5081390;28;20392;-65
2022/09/20 00:33:19;;;;;;;8.02;1.02;;;;;;;10.71;44.61;98656.84;5009369;28;20060;-61
2022/09/20 00:36:03;;;;;;;3.65;0.90;;;;;;;10.80;43.94;98659.03;5081955;28;20072;-63
2022/09/20 00:39:15;;;;;;;2.35;1.10;;;;;;;11.15;44.28;98638.34;5074473;28;20052;-61
2022/09/20 00:42:02;;;;;;;6.28;1.67;;;;;;;11.30;46.46;98638.59;5078537;28;20305;-64
2022/09/20 00:44:54;;;;;;;7.88;1.67;;;;;;;11.27;47.29;98651.81;5058359;28;20074;-62
2022/09/20 00:47:43;;;;;;;7.25;1.13;;;;;;;11.41;47.17;98654.66;5035800;28;20048;-62
2022/09/20 00:50:38;;;;;;;4.47;1.00;;;;;;;11.50;46.95;98643.75;5081207;28;20052;-63
2022/09/20 00:53:25;;;;;;;2.72;1.00;;;;;;;11.40;46.22;98635.47;5081021;28;20032;-62
2022/09/20 00:56:23;;;;;;;6.50;1.38;;;;;;;11.50;45.31;98654.22;5081182;28;20117;-61
2022/09/20 00:59:17;;;;;;;4.70;1.10;;;;;;;11.49;45.70;98662.16;5081187;28;20044;-61
2022/09/20 01:02:01;;;;;;;7.32;1.33;;;;;;;10.76;43.73;98656.66;5046883;28;20076;-62
2022/09/20 01:04:46;;;;;;;4.90;1.00;;;;;;;10.52;45.32;98653.28;5081301;28;20112;-62
2022/09/20 01:07:46;;;;;;;7.72;1.30;;;;;;;10.62;44.00;98632.88;5081086;28;20120;-61
2022/09/20 01:10:41;;;;;;;3.88;1.02;;;;;;;10.90;43.08;98640.34;5080581;28;20079;-61
2022/09/20 01:13:42;;;;;;;8.43;0.98;;;;;;;11.00;46.32;98649.50;5081329;28;20052;-59
2022/09/20 01:16:24;;;;;;;;;;;;;;;11.35;44.99;98678.44;5081113;28;20056;-61
2022/09/20 01:19:03;;;;;;;6.97;1.10;;;;;;;11.09;45.15;98643.88;5080303;28;20161;-62
2022/09/20 01:21:45;;;;;;;5.45;0.95;;;;;;;10.93;44.36;98637.59;5081156;28;20082;-61
2022/09/20 01:24:51;;;;;;;6.28;1.10;;;;;;;10.96;44.22;98653.16;5081379;28;20124;-63
2022/09/20 01:27:46;;;;;;;3.83;1.00;;;;;;;11.44;45.10;98667.59;5081385;28;20171;-64
2022/09/20 01:30:42;;;;;;;4.68;0.90;;;;;;;11.53;44.78;98669.78;5072554;28;20082;-62
2022/09/20 01:33:38;;;;;;;6.50;0.90;;;;;;;11.80;43.31;98692.97;5042861;28;20051;-62
2022/09/20 01:36:31;;;;;;;4.35;0.90;;;;;;;11.88;44.39;98662.06;5084783;28;20120;-64
2022/09/20 01:39:25;;;;;;;6.65;0.93;;;;;;;11.87;40.92;98679.56;5084985;28;20052;-62
2022/09/20 01:42:17;;;;;;;4.53;1.00;;;;;;;11.52;42.58;98699.47;5084079;28;20111;-63
2022/09/20 01:45:18;;;;;;;9.32;1.00;;;;;;;11.62;42.91;98705.97;5050865;28;20055;-64
2022/09/20 01:48:22;;;;;;;6.22;0.93;;;;;;;11.86;42.23;98713.63;5084665;28;21138;-64
2022/09/20 01:51:49;;;;;;;4.13;0.98;;;;;;;11.80;43.42;98703.44;5084934;28;20056;-63
2022/09/20 01:55:09;;;;;;;9.23;1.23;;;;;;;12.01;42.12;98692.00;4961338;28;20417;-64
2022/09/20 01:58:25;;;;;;;3.85;1.02;;;;;;;12.08;41.10;98693.41;4982227;28;20080;-62
2022/09/20 02:01:39;;;;;;;5.47;0.80;;;;;;;11.93;41.02;98693.25;5001319;28;20058;-62
2022/09/20 02:04:43;;;;;;;3.75;0.90;;;;;;;12.01;42.90;98684.16;5001393;28;20041;-65
2022/09/20 02:07:44;;;;;;;4.88;1.10;;;;;;;12.05;41.42;98703.16;5001924;28;20078;-63
2022/09/20 02:11:11;;;;;;;7.85;1.00;;;;;;;11.83;42.31;98692.81;4996618;28;20054;-62
2022/09/20 02:14:18;;;;;;;6.10;1.00;;;;;;;11.91;43.31;98685.50;4948645;28;20378;-63
2022/09/20 02:17:16;;;;;;;3.47;1.00;;;;;;;12.25;43.69;98683.88;4960538;28;20063;-65
2022/09/20 02:20:43;;;;;;;5.07;0.80;;;;;;;12.30;41.71;98694.97;4982908;28;20059;-63
2022/09/20 02:23:40;;;;;;;2.90;0.60;;;;;;;12.22;41.77;98676.19;4897879;29;20090;-64
2022/09/20 02:26:35;;;;;;;2.65;0.90;;;;;;;12.05;41.83;98683.06;4875185;29;20066;-64
2022/09/20 02:29:24;;;;;;;5.25;1.00;;;;;;;12.26;42.42;98701.31;4896787;29;20044;-65
2022/09/20 02:32:28;;;;;;;3.03;0.90;;;;;;;12.25;41.25;98702.22;4949249;28;20047;-63
2022/09/20 02:35:27;;;;;;;3.05;0.65;;;;;;;12.33;41.58;98697.47;4966543;28;20094;-63
2022/09/20 02:38:52;;;;;;;4.75;0.90;;;;;;;12.28;41.64;98720.38;4982650;28;20086;-64
2022/09/20 02:42:02;;;;;;;10.18;1.20;;;;;;;12.08;41.56;98714.34;4981986;28;20311;-63
2022/09/20 02:45:07;;;;;;;4.22;1.10;;;;;;;12.15;42.40;98698.34;4982568;28;20079;-63
2022/09/20 02:47:54;;;;;;;3.22;1.20;;;;;;;12.40;42.53;98719.81;4980491;28;20046;-64
2022/09/20 02:53:53;;;;;;;8.15;0.77;;;;;;;12.12;39.75;98714.19;4982117;28;20207;-63
2022/09/20 02:56:56;;;;;;;2.58;0.73;;;;;;;11.55;40.92;98730.72;4991049;28;20079;-63
2022/09/20 02:59:47;;;;;;;9.98;0.80;;;;;;;11.38;41.43;98734.09;5060731;28;20045;-62
2022/09/20 03:02:37;;;;;;;5.22;0.90;;;;;;;11.78;43.39;98736.66;5061283;28;20176;-64
2022/09/20 03:05:21;;;;;;;3.47;0.90;;;;;;;12.00;41.13;98747.88;5061338;28;20051;-64
2022/09/20 03:08:10;;;;;;;5.00;0.90;;;;;;;11.90;39.80;98754.47;5060327;28;20345;-64
2022/09/20 03:10:57;;;;;;;11.75;1.13;;;;;;;10.98;41.90;98672.22;5060594;28;20049;-65
2022/09/20 03:14:12;;;;;;;5.80;0.90;;;;;;;11.43;43.29;98767.88;5059987;28;20108;-63
2022/09/20 03:17:32;;;;;;;8.68;1.27;;;;;;;11.08;42.71;98772.00;5073928;28;20060;-64
2022/09/20 03:20:30;;;;;;;9.90;1.23;;;;;;;10.53;41.37;98760.31;5086711;28;20046;-62
2022/09/20 03:23:21;;;;;;;9.18;1.75;;;;;;;10.71;42.75;98763.94;5088668;28;20064;-63
2022/09/20 03:26:06;;;;;;;9.27;1.92;;;;;;;11.08;42.93;98772.84;5087840;28;20063;-64
2022/09/20 03:29:00;;;;;;;5.97;2.20;;;;;;;10.83;41.97;98727.75;5089592;28;20094;-66
2022/09/20 03:32:01;;;;;;;15.13;1.60;;;;;;;11.12;41.77;98768.34;5091595;28;20052;-63
2022/09/20 03:34:47;;;;;;;8.50;1.80;;;;;;;11.30;41.75;98771.94;5068599;28;20044;-63
2022/09/20 03:37:51;;;;;;;3.95;1.25;;;;;;;11.70;43.74;98804.19;5033029;28;20040;-64
2022/09/20 03:41:28;;;;;;;7.93;0.88;;;;;;;12.22;43.32;98814.97;5075791;28;20074;-65
2022/09/20 03:44:38;;;;;;;13.35;4.80;;;;;;;12.44;43.84;98810.44;5089781;28;20059;-63
2022/09/20 03:47:30;;;;;;;7.97;1.30;;;;;;;12.40;43.30;98780.06;5077589;28;20038;-66
2022/09/20 03:50:37;;;;;;;4.65;0.90;;;;;;;12.66;41.95;98836.47;5087074;28;20060;-66
2022/09/20 03:53:55;;;;;;;17.13;9.23;;;;;;;12.44;41.69;98836.63;5034182;28;20051;-65
2022/09/20 03:57:01;;;;;;;19.40;8.20;;;;;;;12.38;42.06;98836.94;5069803;28;20055;-64
2022/09/20 04:00:29;;;;;;;6.38;2.40;;;;;;;11.97;40.36;98831.78;5085675;28;20111;-63
2022/09/20 04:03:15;;;;;;;;;;;;;;;11.93;43.10;98825.00;5089801;28;20200;-65
2022/09/20 04:06:38;;;;;;;10.98;2.20;;;;;;;12.38;43.27;98863.13;5089872;28;19916;-63
2022/09/20 04:09:40;;;;;;;15.45;2.03;;;;;;;12.54;41.29;98875.50;5088468;28;20052;-62
2022/09/20 04:15:40;;;;;;;16.20;1.25;;;;;;;12.09;40.93;98870.50;5087382;28;20052;-66
2022/09/20 04:18:36;;;;;;;5.32;0.85;;;;;;;12.20;42.68;98879.66;5079687;28;20064;-65
2022/09/20 04:21:22;;;;;;;12.30;1.00;;;;;;;12.28;41.37;98893.25;5082108;28;20048;-64
2022/09/20 04:24:08;;;;;;;8.75;1.02;;;;;;;12.22;42.10;98901.38;5043110;28;20056;-63
2022/09/20 04:27:05;;;;;;;4.30;0.80;;;;;;;12.23;43.04;98896.09;5081685;28;20080;-64
2022/09/20 04:30:16;;;;;;;16.20;1.30;;;;;;;12.27;43.57;98902.03;5081406;28;20043;-64
2022/09/20 04:33:11;;;;;;;5.53;0.70;;;;;;;12.31;44.15;98929.78;5081741;28;20290;-63
2022/09/20 04:39:01;;;;;;;20.02;3.97;;;;;;;12.11;44.45;98941.16;5081247;28;20052;-65
2022/09/20 04:42:21;;;;;;;6.72;1.20;;;;;;;12.41;43.10;98940.72;5081276;28;20090;-65
2022/09/20 04:45:41;;;;;;;3.88;1.02;;;;;;;12.82;43.77;98951.91;5081616;28;20356;-66
2022/09/20 04:48:59;;;;;;;6.88;0.60;;;;;;;12.89;42.45;98958.56;5081841;28;20197;-63
2022/09/20 04:52:25;;;;;;;12.90;0.90;;;;;;;12.98;42.29;98973.03;5081991;28;20056;-62
2022/09/20 04:55:48;;;;;;;7.63;0.98;;;;;;;13.18;45.26;98969.47;5019774;28;20149;-63
2022/09/20 04:58:47;;;;;;;4.38;0.85;;;;;;;13.36;44.22;98979.09;4987757;28;20282;-62
2022/09/20 05:01:57;;;;;;;8.80;0.88;;;;;;;13.31;43.38;98991.59;5018170;28;20042;-64
2022/09/20 05:05:31;;;;;;;10.30;2.17;;;;;;;12.87;43.22;98991.84;4985456;28;20096;-63
2022/09/20 05:08:48;;;;;;;8.02;0.82;;;;;;;12.73;43.25;98978.56;5019622;28;20045;-63
2022/09/20 05:12:18;;;;;;;4.72;1.40;;;;;;;12.82;43.73;99004.34;5019255;28;20058;-64
2022/09/20 05:15:30;;;;;;;2.65;0.68;;;;;;;13.01;44.76;99024.47;5019060;28;20144;-62
2022/09/20 05:18:47;;;;;;;5.72;1.30;;;;;;;13.12;44.36;99032.69;5029433;28;20049;-63
2022/09/20 05:25:29;;;;;;;4.80;0.73;;;;;;;12.78;45.38;99065.69;4981467;28;20138;-64
2022/09/20 05:28:31;;;;;;;13.27;1.83;;;;;;;12.94;45.29;99061.44;4989238;28;20458;-63
2022/09/20 05:31:25;;;;;;;5.57;0.70;;;;;;;12.98;44.18;99071.78;5018966;28;20053;-63
2022/09/20 05:34:28;;;;;;;8.45;1.10;;;;;;;12.77;44.13;99063.97;5019195;28;20053;-66
2022/09/20 05:37:15;;;;;;;3.60;0.95;;;;;;;12.94;45.15;99082.44;5012326;28;20046;-64
2022/09/20 05:40:01;;;;;;;3.92;0.90;;;;;;;12.94;45.63;99092.91;4970073;28;20045;-64
2022/09/20 05:42:59;;;;;;;4.68;0.70;;;;;;;12.63;43.56;99098.69;5019436;28;20378;-62
2022/09/20 05:46:06;;;;;;;6.38;1.38;;;;;;;12.24;44.46;99085.50;5019735;28;20064;-62
2022/09/20 05:48:54;;;;;;;5.55;1.08;;;;;;;12.06;44.11;99108.91;5018962;28;20054;-63
2022/09/20 05:51:57;;;;;;;5.65;0.90;;;;;;;12.09;46.41;99114.03;4990219;28;20055;-64
2022/09/20 05:55:06;;;;;;;5.53;1.00;;;;;;;12.23;44.49;99120.44;5018508;28;20096;-65
2022/09/20 05:58:00;;;;;;;2.47;0.73;;;;;;;12.52;46.62;99133.19;5006526;28;20060;-65
2022/09/20 06:01:13;;;;;;;35.35;2.40;;;;;;;12.92;45.69;99128.84;5059149;28;20071;-65
2022/09/20 06:04:00;;;;;;;4.15;0.68;;;;;;;13.01;46.01;99130.22;5060699;28;20091;-65
2022/09/20 06:07:02;;;;;;;2.38;0.63;;;;;;;12.63;44.07;99129.25;5060159;28;20086;-64
2022/09/20 06:10:24;;;;;;;2.40;0.80;;;;;;;12.73;45.67;99156.78;5060501;28;20073;-64
2022/09/20 06:13:34;;;;;;;5.20;0.90;;;;;;;12.89;45.31;99162.22;5060536;28;20302;-64
2022/09/20 06:16:32;;;;;;;5.18;0.80;;;;;;;13.08;45.78;99167.47;5058794;28;20044;-66
2022/09/20 06:19:27;;;;;;;12.27;1.33;;;;;;;12.89;45.34;99155.19;5059673;28;20107;-65
2022/09/20 06:22:50;;;;;;;7.82;0.80;;;;;;;12.90;46.79;99164.78;5063956;28;20087;-64
2022/09/20 06:25:30;;;;;;;17.90;1.80;;;;;;;12.98;46.16;99155.69;5001398;28;20178;-66
2022/09/20 06:28:11;;;;;;;2.05;0.88;;;;;;;13.05;45.51;99162.38;5002553;28;20058;-65
2022/09/20 06:30:53;;;;;;;7.55;0.90;;;;;;;12.76;43.33;99177.63;5002440;28;20053;-64
2022/09/20 06:33:33;;;;;;;5.72;0.73;;;;;;;12.55;44.33;99181.13;5001895;28;20056;-64
2022/09/20 06:42:33;;;;;;;4.40;0.57;;;;;;;12.73;45.80;99183.84;5001454;28;20182;-65
2022/09/20 06:45:26;;;;;;;3.83;0.80;;;;;;;12.76;47.49;99197.75;5001670;28;21046;-66
2022/09/20 06:48:04;;;;;;;5.10;0.88;;;;;;;12.31;46.72;99149.81;4944497;28;20046;-64
2022/09/20 06:50:57;;;;;;;6.22;1.08;;;;;;;12.54;47.29;99190.78;5000369;28;20046;-65
2022/09/20 06:53:41;;;;;;;6.22;0.70;;;;;;;12.42;47.08;99191.28;5001081;28;20102;-66
2022/09/20 06:56:25;;;;;;;13.50;1.30;;;;;;;12.32;47.85;99180.31;5001181;28;20058;-65
2022/09/20 06:59:04;;;;;;;7.70;1.35;;;;;;;12.44;48.75;99192.06;5001263;28;20111;-67
2022/09/20 07:01:53;;;;;;;9.25;2.90;;;;;;;12.55;48.23;99209.97;5001169;28;20329;-64
2022/09/20 07:04:33;;;;;;;9.60;1.40;;;;;;;12.66;46.10;99213.84;5001244;28;20080;-64
2022/09/20 07:07:34;;;;;;;39.80;2.90;;;;;;;12.57;47.18;99223.84;5000740;28;20092;-63
2022/09/20 07:10:18;;;;;;;12.38;1.70;;;;;;;12.60;48.57;99218.47;5000867;28;20121;-65
2022/09/20 07:13:02;;;;;;;9.82;1.23;;;;;;;12.58;47.61;99242.16;4998156;28;20062;-65
2022/09/20 07:18:37;;;;;;;12.52;1.35;;;;;;;12.14;49.17;99215.13;5020948;28;20096;-64
2022/09/20 07:21:24;;;;;;;15.25;1.20;;;;;;;12.21;50.13;99242.78;5017382;28;20042;-63
2022/09/20 07:27:10;;;;;;;37.92;4.30;;;;;;;12.06;48.97;99258.16;5030149;28;20076;-63
2022/09/20 07:30:01;;;;;;;8.40;1.10;;;;;;;12.00;50.08;99265.38;5016727;28;20041;-64
2022/09/20 07:32:56;;;;;;;65.60;7.75;;;;;;;11.76;51.09;99225.28;5001036;28;20068;-64
2022/09/20 07:39:01;;;;;;;15.77;2.72;;;;;;;11.74;52.99;99248.88;4968895;28;20108;-64
2022/09/20 07:43:03;;;;;;;7.00;1.42;;;;;;;11.69;52.51;99283.97;5028878;28;20088;-64
2022/09/20 07:45:54;;;;;;;14.82;1.73;;;;;;;11.49;53.06;99290.78;5029920;28;20276;-64
2022/09/20 07:48:46;;;;;;;29.88;2.90;;;;;;;11.45;54.53;99299.63;5031492;28;20129;-65
2022/09/20 07:51:31;;;;;;;11.45;1.60;;;;;;;11.40;54.32;99296.31;5031517;28;20090;-65
2022/09/20 07:54:17;;;;;;;6.43;1.42;;;;;;;11.43;55.16;99301.44;5023575;28;20225;-64
2022/09/20 07:57:00;;;;;;;10.10;1.77;;;;;;;11.35;55.19;99304.31;5089066;28;20054;-65
2022/09/20 07:59:43;;;;;;;8.32;1.52;;;;;;;11.37;54.93;99301.66;5085116;28;20048;-64
2022/09/20 08:02:21;;;;;;;28.20;3.17;;;;;;;11.36;55.49;99311.28;5084351;28;20062;-64
2022/09/20 08:05:08;;;;;;;6.60;1.10;;;;;;;11.25;55.63;99302.09;5080490;28;20083;-63
2022/09/20 08:07:43;;;;;;;18.55;2.38;;;;;;;11.11;55.99;99306.03;5086199;28;20065;-65
2022/09/20 08:13:21;;;;;;;99.88;11.00;;;;;;;10.99;56.78;99307.31;5084519;28;20107;-64
2022/09/20 08:16:41;;;;;;;82.28;6.93;;;;;;;10.87;56.66;99318.16;5085593;28;20529;-65
2022/09/20 08:19:26;;;;;;;18.73;3.28;;;;;;;10.76;56.13;99318.50;5081905;28;20310;-64
2022/09/20 08:22:11;;;;;;;12.55;2.88;;;;;;;10.82;56.34;99335.75;5079497;28;20107;-64
2022/09/20 08:24:57;;;;;;;7.40;2.00;;;;;;;10.85;56.85;99342.63;5080752;28;20091;-63
2022/09/20 08:27:56;;;;;;;16.20;4.03;;;;;;;10.83;56.12;99352.28;5065221;28;20067;-64
2022/09/20 08:33:36;;;;;;;6.80;2.13;;;;;;;10.59;57.02;99352.16;5057103;28;20112;-65
2022/09/20 08:36:17;;;;;;;35.13;8.43;;;;;;;10.65;58.01;99359.78;5078021;28;20048;-65
2022/09/20 08:39:06;;;;;;;13.70;9.80;;;;;;;10.55;57.92;99368.81;5025034;28;20109;-66
2022/09/20 08:42:26;;;;;;;8.60;2.10;;;;;;;10.50;58.10;99355.03;5081086;28;20218;-65
2022/09/20 08:45:28;;;;;;;27.77;2.75;;;;;;;10.48;58.77;99372.50;5079005;28;20098;-64
2022/09/20 08:48:15;;;;;;;7.57;1.50;;;;;;;10.50;58.02;99370.72;5078674;28;20052;-65
2022/09/20 08:51:29;;;;;;;18.33;1.92;;;;;;;10.24;58.91;99354.03;5080068;28;20050;-66
2022/09/20 08:57:19;;;;;;;14.68;2.35;;;;;;;10.03;59.39;99344.22;5079201;28;20071;-64
2022/09/20 08:59:59;;;;;;;31.13;3.08;;;;;;;10.29;60.11;99391.34;5079275;28;20349;-66
2022/09/20 09:02:41;;;;;;;9.43;1.63;;;;;;;10.35;60.02;99393.78;5035691;28;20053;-65
2022/09/20 09:05:32;;;;;;;7.15;2.00;;;;;;;10.18;59.81;99390.75;5038276;28;20070;-64
2022/09/20 09:08:41;;;;;;;8.73;2.13;;;;;;;10.06;60.49;99391.09;5078992;28;20071;-64
2022/09/20 09:11:27;;;;;;;22.42;2.75;;;;;;;10.04;60.95;99404.22;5077936;28;20066;-64
2022/09/20 09:17:19;;;;;;;5.43;1.30;;;;;;;9.55;61.32;99369.00;5059310;28;20116;-66
2022/09/20 09:20:04;;;;;;;4.95;1.20;;;;;;;9.66;61.55;99428.72;5071856;28;20040;-65
2022/09/20 09:22:52;;;;;;;8.10;2.10;;;;;;;9.58;61.75;99415.03;5070170;28;20040;-64
2022/09/20 09:25:42;;;;;;;9.50;1.77;;;;;;;9.73;62.32;99425.06;5071570;28;20061;-65
2022/09/20 09:28:30;;;;;;;10.15;1.67;;;;;;;9.68;62.77;99434.75;5070620;28;20049;-64
2022/09/20 09:31:31;;;;;;;9.25;2.10;;;;;;;9.65;62.54;99447.88;5070389;28;20267;-66
2022/09/20 09:34:29;;;;;;;7.70;1.85;;;;;;;9.66;63.41;99460.91;5070557;28;20468;-65
2022/09/20 09:37:35;;;;;;;8.85;1.80;;;;;;;9.09;63.39;99375.41;5069083;28;20121;-65
2022/09/20 09:40:20;;;;;;;5.03;1.40;;;;;;;9.49;63.18;99458.69;5070756;28;20040;-66
2022/09/20 09:43:25;;;;;;;46.55;3.45;;;;;;;9.46;64.05;99474.44;5046702;28;20048;-65
2022/09/20 09:46:22;;;;;;;16.88;2.38;;;;;;;9.44;64.54;99471.00;5055844;28;20082;-66
2022/09/20 09:49:14;;;;;;;9.35;1.55;;;;;;;9.46;64.58;99474.44;5070936;28;20052;-64
2022/09/20 09:55:16;;;;;;;16.27;2.13;;;;;;;9.07;65.60;99476.22;4968206;28;20286;-64
2022/09/20 09:58:53;;;;;;;7.35;1.92;;;;;;;9.06;67.32;99496.22;5014439;28;20054;-65
2022/09/20 10:02:00;;;;;;;18.00;5.72;;;;;;;8.91;67.85;99512.19;5010945;28;20049;-65
2022/09/20 10:04:58;;;;;;;12.82;5.25;;;;;;;8.70;67.39;99502.22;4984179;28;20375;-65
2022/09/20 10:07:50;;;;;;;18.33;4.07;;;;;;;8.45;68.20;99471.47;5013684;28;20058;-64
2022/09/20 10:16:40;;;;;;;19.10;2.83;;;;;;;8.66;66.92;99542.22;4993131;28;20053;-63
2022/09/20 10:19:37;;;;;;;11.63;1.35;;;;;;;8.79;65.31;99538.50;4993903;28;20267;-63
2022/09/20 10:22:32;;;;;;;10.18;2.45;;;;;;;8.75;64.80;99547.25;4992678;28;20058;-64
2022/09/20 10:25:23;;;;;;;8.65;1.60;;;;;;;8.91;63.23;99553.88;4992742;28;20078;-65
2022/09/20 10:28:20;;;;;;;8.07;2.13;;;;;;;8.99;64.27;99572.81;4972821;28;20101;-64
2022/09/20 10:31:22;;;;;;;11.68;1.95;;;;;;;8.75;65.14;99579.38;5000670;28;20122;-63
2022/09/20 10:34:20;;;;;;;6.55;1.30;;;;;;;8.67;64.73;99586.47;5042351;28;20060;-66
2022/09/20 10:37:02;;;;;;;7.07;1.80;;;;;;;8.50;64.57;99572.94;5047846;28;20079;-64
2022/09/20 10:46:03;;;;;;;10.05;2.33;;;;;;;8.66;66.45;99625.56;5077801;28;20065;-66
2022/09/20 10:49:25;;;;;;;7.95;1.70;;;;;;;8.21;66.20;99577.75;5065133;28;20060;-65
2022/09/20 10:52:27;;;;;;;5.05;1.10;;;;;;;8.52;63.98;99655.34;5074328;28;20214;-64
2022/09/20 10:55:26;;;;;;;6.53;1.73;;;;;;;8.54;65.91;99653.56;5081790;28;20098;-66
2022/09/20 11:01:34;;;;;;;10.60;1.80;;;;;;;8.53;65.07;99688.28;5058825;28;20044;-68
2022/09/20 11:04:55;;;;;;;8.77;1.60;;;;;;;8.56;64.63;99703.00;5081038;28;20068;-66
2022/09/20 11:07:51;;;;;;;7.72;1.73;;;;;;;8.58;65.36;99709.91;5064160;28;20101;-66
2022/09/20 11:10:42;;;;;;;16.05;3.10;;;;;;;8.60;66.81;99710.72;5081953;28;20048;-64
2022/09/20 11:13:31;;;;;;;25.13;11.10;;;;;;;8.57;67.60;99700.38;5072869;28;20241;-65
2022/09/20 11:16:34;;;;;;;42.97;15.23;;;;;;;8.48;68.39;99705.72;5081761;28;20090;-66
2022/09/20 11:19:33;;;;;;;12.30;4.78;;;;;;;7.93;67.95;99649.34;5077645;28;20072;-66
2022/09/20 11:22:32;;;;;;;9.07;3.75;;;;;;;8.45;66.51;99737.03;5054078;28;20079;-64
2022/09/20 11:25:56;;;;;;;11.68;3.85;;;;;;;8.41;64.18;99736.25;5050519;28;20233;-66
2022/09/20 11:28:54;;;;;;;30.13;11.10;;;;;;;8.46;64.75;99749.16;5071668;28;20068;-63
2022/09/20 11:31:36;;;;;;;;;;;;;;;8.51;64.92;99755.19;5081088;28;20060;-64
2022/09/20 11:34:30;;;;;;;24.77;11.35;;;;;;;8.53;65.32;99755.13;5074221;28;19917;-64
2022/09/20 11:37:08;;;;;;;153.52;61.90;;;;;;;8.54;65.38;99742.09;5080953;28;20131;-64
2022/09/20 11:39:59;;;;;;;64.30;27.15;;;;;;;8.52;65.58;99738.66;5081226;28;20076;-64
2022/09/20 11:42:39;;;;;;;16.13;5.80;;;;;;;8.42;64.41;99742.28;5080194;28;20041;-64
2022/09/20 11:45:38;;;;;;;14.25;4.00;;;;;;;8.46;64.42;99764.78;5036101;28;20060;-64
2022/09/20 11:48:21;;;;;;;9.13;1.55;;;;;;;8.47;63.32;99771.72;5072249;28;20073;-64
2022/09/20 11:51:39;;;;;;;12.35;2.70;;;;;;;8.47;63.08;99776.06;5079739;28;20116;-63
2022/09/20 11:54:34;;;;;;;32.95;3.97;;;;;;;8.40;62.89;99785.72;5066089;28;20048;-65
2022/09/20 11:57:21;;;;;;;13.18;3.80;;;;;;;8.47;62.67;99787.34;5081497;28;20044;-63
2022/09/20 12:00:07;;;;;;;13.10;7.75;;;;;;;8.46;61.86;99801.22;5079888;28;20111;-64
2022/09/20 12:02:56;;;;;;;11.80;3.75;;;;;;;8.56;63.10;99802.84;5049044;28;20050;-64
2022/09/20 12:05:43;;;;;;;9.57;3.38;;;;;;;8.54;64.43;99799.41;5072071;28;20052;-64
2022/09/20 12:08:34;;;;;;;14.07;3.35;;;;;;;8.67;65.55;99809.63;5069153;28;20216;-64
2022/09/20 12:11:20;;;;;;;12.70;2.60;;;;;;;8.70;66.14;99819.97;5079900;28;20040;-64
2022/09/20 12:14:32;;;;;;;11.38;3.20;;;;;;;8.66;67.07;99818.28;5070312;28;22028;-64
2022/09/20 12:17:52;;;;;;;7.03;1.40;;;;;;;8.63;66.13;99830.47;5081156;28;20045;-65
2022/09/20 12:21:15;;;;;;;6.93;2.00;;;;;;;8.66;66.91;99832.19;5071686;28;20060;-65
2022/09/20 12:24:28;;;;;;;8.95;2.17;;;;;;;8.59;66.46;99823.63;5072774;28;20060;-64
2022/09/20 12:28:03;;;;;;;5.85;1.58;;;;;;;8.63;66.90;99833.09;4993163;28;20047;-63
2022/09/20 12:30:46;;;;;;;6.85;1.48;;;;;;;8.59;66.32;99839.25;4989782;28;20055;-65
2022/09/20 12:37:29;;;;;;;9.38;1.75;;;;;;;8.56;65.96;99856.63;4980928;28;20051;-65
2022/09/20 12:40:18;;;;;;;6.30;1.48;;;;;;;8.59;65.87;99860.06;4980835;28;20078;-64
2022/09/20 12:43:01;;;;;;;5.18;1.40;;;;;;;8.53;66.35;99860.16;4980667;28;20138;-64
2022/09/20 12:46:03;;;;;;;14.32;1.50;;;;;;;8.13;65.98;99803.41;4980754;28;20054;-63
2022/09/20 12:48:47;;;;;;;8.00;1.33;;;;;;;8.51;66.48;99867.16;4980771;28;20166;-64
2022/09/20 12:54:57;;;;;;;7.00;1.70;;;;;;;8.47;65.89;99875.88;4964583;28;20085;-64
2022/09/20 12:57:57;;;;;;;6.10;1.60;;;;;;;8.55;66.17;99878.38;4923744;29;20054;-62
2022/09/20 13:00:46;;;;;;;9.77;1.60;;;;;;;8.36;65.53;99867.31;4917777;29;20116;-64
2022/09/20 13:03:36;;;;;;;4.45;1.75;;;;;;;8.42;65.65;99875.94;4972653;28;20091;-62
2022/09/20 13:06:39;;;;;;;5.28;1.52;;;;;;;8.33;65.75;99885.56;4971043;28;20058;-63
2022/09/20 13:09:22;;;;;;;7.68;1.10;;;;;;;8.20;65.67;99888.34;5002777;28;20065;-62
2022/09/20 13:12:03;;;;;;;7.30;1.40;;;;;;;8.19;65.81;99886.63;5003254;28;20058;-62
2022/09/20 13:15:10;;;;;;;14.85;1.30;;;;;;;8.18;66.33;99890.09;4994974;28;20082;-63
2022/09/20 13:17:51;;;;;;;5.78;1.23;;;;;;;8.21;66.06;99879.66;4970343;28;20234;-63
2022/09/20 13:20:39;;;;;;;10.07;1.55;;;;;;;8.23;66.31;99882.22;4965111;28;20087;-63
2022/09/20 13:23:30;;;;;;;7.50;1.58;;;;;;;8.19;66.47;99884.03;4963890;29;20107;-63
2022/09/20 13:26:18;;;;;;;7.70;1.52;;;;;;;8.00;66.24;99879.91;4948555;29;20267;-63
2022/09/20 13:29:06;;;;;;;4.22;1.33;;;;;;;8.01;66.56;99897.25;5026744;28;20057;-64
2022/09/20 13:35:12;;;;;;;5.70;1.33;;;;;;;7.70;65.72;99861.19;5042742;28;20092;-63
2022/09/20 13:38:07;;;;;;;8.10;1.50;;;;;;;7.99;65.64;99904.22;5043441;28;20103;-63
2022/09/20 13:40:54;;;;;;;5.05;1.65;;;;;;;8.03;65.24;99905.03;5028414;28;20085;-62
2022/09/20 13:43:51;;;;;;;14.10;1.83;;;;;;;7.94;65.49;99891.28;5043990;28;20050;-61
2022/09/20 13:46:34;;;;;;;6.88;1.38;;;;;;;7.86;65.64;99881.81;5025942;28;20045;-62
2022/09/20 13:49:23;;;;;;;7.90;1.55;;;;;;;7.94;66.07;99898.22;5042096;28;20075;-61
2022/09/20 13:52:34;;;;;;;7.93;1.40;;;;;;;7.94;66.09;99900.81;5028651;28;20065;-61
2022/09/20 13:55:44;;;;;;;6.13;1.02;;;;;;;7.94;66.69;99900.81;5042412;28;20042;-61
2022/09/20 13:58:41;;;;;;;2.58;1.00;;;;;;;8.02;66.33;99893.78;5043636;28;20057;-62
2022/09/20 14:01:38;;;;;;;7.15;1.65;;;;;;;8.02;66.45;99893.78;5043167;28;20144;-62
2022/09/20 14:04:45;;;;;;;5.53;1.30;;;;;;;8.06;66.96;99889.38;5043677;28;20080;-61
2022/09/20 14:07:32;;;;;;;12.32;1.60;;;;;;;8.11;66.83;99883.25;5042667;28;20050;-61
2022/09/20 14:10:32;;;;;;;11.13;1.73;;;;;;;8.16;66.58;99897.09;5012344;28;20041;-63
2022/09/20 14:13:08;;;;;;;3.95;1.40;;;;;;;7.97;66.38;99859.16;5042841;28;20108;-63
2022/09/20 14:16:09;;;;;;;3.53;0.93;;;;;;;8.25;66.80;99895.22;4992936;28;20299;-62
2022/09/20 14:19:19;;;;;;;3.72;1.30;;;;;;;8.37;66.35;99897.69;5048749;28;20308;-63
2022/09/20 14:22:17;;;;;;;2.65;1.10;;;;;;;8.36;65.89;99901.16;5063147;28;20053;-62
2022/09/20 14:25:10;;;;;;;5.00;1.00;;;;;;;8.27;65.22;99888.28;5045076;28;20349;-62
2022/09/20 14:28:20;;;;;;;4.75;1.10;;;;;;;8.26;64.13;99917.75;5061096;28;20103;-62
2022/09/20 14:31:42;;;;;;;6.78;1.13;;;;;;;7.93;63.91;99852.25;5042717;28;20140;-62
2022/09/20 14:34:36;;;;;;;3.85;1.15;;;;;;;8.31;63.64;99905.56;5042719;28;20049;-62
2022/09/20 14:37:35;;;;;;;13.02;1.52;;;;;;;7.94;63.40;99870.44;5028108;28;20061;-63
2022/09/20 14:40:25;;;;;;;7.00;1.58;;;;;;;8.25;64.09;99905.66;5043387;28;20049;-61
2022/09/20 14:43:28;;;;;;;4.25;1.15;;;;;;;8.22;63.89;99901.34;5013713;28;20085;-62
2022/09/20 14:49:34;;;;;;;8.13;1.42;;;;;;;8.30;63.31;99909.06;5045824;28;20050;-63
2022/09/20 14:52:50;;;;;;;11.95;1.52;;;;;;;8.32;63.19;99918.56;4995143;28;20076;-63
2022/09/20 14:55:49;;;;;;;4.47;0.98;;;;;;;8.29;62.84;99913.41;5030727;28;20153;-62
2022/09/20 14:58:35;;;;;;;7.70;1.15;;;;;;;8.31;62.88;99915.97;5046596;28;20046;-63
2022/09/20 15:01:46;;;;;;;8.43;1.63;;;;;;;8.37;62.20;99928.91;5046324;28;20057;-62
2022/09/20 15:04:34;;;;;;;5.32;1.33;;;;;;;8.27;62.59;99909.09;5045766;28;20377;-63
2022/09/20 15:07:12;;;;;;;2.42;1.02;;;;;;;8.38;62.42;99928.03;5046703;28;20065;-62